sensor_id;sensor_type;location;lat;lon;timestamp;pressure;altitude;pressure_sealevel;temperature;humidity
9740;BME280;4909;42.680;26.324;2023-01-19T00:01:15;97937.06;;;14.39;100.00
9740;BME280;4909;42.680;26.324;2023-01-19T00:03:42;97927.13;;;14.15;100.00
9740;BME280;4909;42.680;26.324;2023-01-19T00:06:09;97924.47;;;14.15;100.00
9740;BME280;4909;42.680;26.324;2023-01-19T00:08:36;97952.53;;;14.21;100.00
9740;BME280;4909;42.680;26.324;2023-01-19T00:11:04;97949.78;;;14.22;100.00
9740;BME280;4909;42.680;26.324;2023-01-19T00:13:31;97946.31;;;14.33;100.00
9740;BME280;4909;42.680;26.324;2023-01-19T00:15:58;97944.50;;;14.33;100.00
9740;BME280;4909;42.680;26.324;2023-01-19T00:21:11;97941.75;;;14.35;100.00
9740;BME280;4909;42.680;26.324;2023-01-19T00:23:39;97960.03;;;14.41;100.00
9740;BME280;4909;42.680;26.324;2023-01-19T00:26:06;97951.88;;;14.30;100.00
9740;BME280;4909;42.680;26.324;2023-01-19T00:28:33;97965.13;;;14.19;100.00
9740;BME280;4909;42.680;26.324;2023-01-19T00:31:00;97951.38;;;14.12;100.00
9740;BME280;4909;42.680;26.324;2023-01-19T00:33:28;97970.25;;;14.09;100.00
9740;BME280;4909;42.680;26.324;2023-01-19T00:35:54;97976.56;;;14.21;100.00
9740;BME280;4909;42.680;26.324;2023-01-19T00:38:21;97968.13;;;14.27;100.00
9740;BME280;4909;42.680;26.324;2023-01-19T00:40:49;97984.16;;;14.27;100.00
9740;BME280;4909;42.680;26.324;2023-01-19T00:43:15;97994.47;;;14.06;100.00
9740;BME280;4909;42.680;26.324;2023-01-19T00:45:41;97989.47;;;14.02;100.00
9740;BME280;4909;42.680;26.324;2023-01-19T00:48:08;97983.03;;;13.79;100.00
9740;BME280;4909;42.680;26.324;2023-01-19T00:50:36;97986.34;;;13.70;100.00
9740;BME280;4909;42.680;26.324;2023-01-19T00:53:03;97989.31;;;13.78;100.00
9740;BME280;4909;42.680;26.324;2023-01-19T00:55:30;97967.66;;;13.70;100.00
9740;BME280;4909;42.680;26.324;2023-01-19T00:57:57;98003.28;;;13.81;100.00
9740;BME280;4909;42.680;26.324;2023-01-19T01:00:25;98003.53;;;13.91;100.00
9740;BME280;4909;42.680;26.324;2023-01-19T01:02:52;97998.72;;;13.83;100.00
9740;BME280;4909;42.680;26.324;2023-01-19T01:05:19;97969.88;;;13.76;100.00
9740;BME280;4909;42.680;26.324;2023-01-19T01:07:48;97990.59;;;13.72;100.00
9740;BME280;4909;42.680;26.324;2023-01-19T01:10:16;97975.63;;;13.57;100.00
9740;BME280;4909;42.680;26.324;2023-01-19T01:12:44;97990.69;;;13.71;100.00
9740;BME280;4909;42.680;26.324;2023-01-19T01:15:11;97990.06;;;13.80;100.00
9740;BME280;4909;42.680;26.324;2023-01-19T01:17:39;97991.13;;;13.65;100.00
9740;BME280;4909;42.680;26.324;2023-01-19T01:20:13;97988.56;;;13.76;100.00
9740;BME280;4909;42.680;26.324;2023-01-19T01:22:43;97993.72;;;13.79;100.00
9740;BME280;4909;42.680;26.324;2023-01-19T01:25:12;97990.91;;;13.80;100.00
9740;BME280;4909;42.680;26.324;2023-01-19T01:27:39;97987.09;;;13.84;100.00
9740;BME280;4909;42.680;26.324;2023-01-19T01:30:07;97988.69;;;13.87;100.00
9740;BME280;4909;42.680;26.324;2023-01-19T01:32:35;97993.94;;;13.88;100.00
9740;BME280;4909;42.680;26.324;2023-01-19T01:35:01;97958.75;;;13.44;100.00
9740;BME280;4909;42.680;26.324;2023-01-19T01:37:29;98001.91;;;13.76;100.00
9740;BME280;4909;42.680;26.324;2023-01-19T01:39:55;98003.28;;;13.81;100.00
9740;BME280;4909;42.680;26.324;2023-01-19T01:42:30;98006.13;;;14.05;100.00
9740;BME280;4909;42.680;26.324;2023-01-19T01:44:59;97998.53;;;14.24;100.00
9740;BME280;4909;42.680;26.324;2023-01-19T01:47:30;97994.16;;;14.11;100.00
9740;BME280;4909;42.680;26.324;2023-01-19T01:50:04;97997.25;;;14.05;100.00
9740;BME280;4909;42.680;26.324;2023-01-19T01:52:35;98004.19;;;14.20;100.00
9740;BME280;4909;42.680;26.324;2023-01-19T01:55:05;98001.56;;;14.32;100.00
9740;BME280;4909;42.680;26.324;2023-01-19T01:57:36;97994.75;;;14.41;100.00
9740;BME280;4909;42.680;26.324;2023-01-19T02:00:05;97981.59;;;14.38;100.00
9740;BME280;4909;42.680;26.324;2023-01-19T02:02:34;97988.44;;;14.42;100.00
9740;BME280;4909;42.680;26.324;2023-01-19T02:05:19;97963.97;;;14.35;100.00
9740;BME280;4909;42.680;26.324;2023-01-19T02:07:50;97989.16;;;14.31;100.00
9740;BME280;4909;42.680;26.324;2023-01-19T02:10:36;97991.94;;;14.30;100.00
9740;BME280;4909;42.680;26.324;2023-01-19T02:13:22;97966.09;;;14.18;100.00
9740;BME280;4909;42.680;26.324;2023-01-19T02:15:51;97982.13;;;14.18;100.00
9740;BME280;4909;42.680;26.324;2023-01-19T02:18:18;97963.00;;;14.11;100.00
9740;BME280;4909;42.680;26.324;2023-01-19T02:20:52;97989.03;;;14.33;100.00
9740;BME280;4909;42.680;26.324;2023-01-19T02:23:30;97983.81;;;14.19;100.00
9740;BME280;4909;42.680;26.324;2023-01-19T02:25:59;97981.69;;;14.11;100.00
9740;BME280;4909;42.680;26.324;2023-01-19T02:28:27;98002.06;;;14.25;100.00
9740;BME280;4909;42.680;26.324;2023-01-19T02:30:54;98009.66;;;14.18;100.00
9740;BME280;4909;42.680;26.324;2023-01-19T02:33:21;98000.47;;;14.10;100.00
9740;BME280;4909;42.680;26.324;2023-01-19T02:35:50;98015.41;;;14.25;100.00
9740;BME280;4909;42.680;26.324;2023-01-19T02:38:18;97990.53;;;14.12;100.00
9740;BME280;4909;42.680;26.324;2023-01-19T02:40:48;98017.16;;;14.39;100.00
9740;BME280;4909;42.680;26.324;2023-01-19T02:43:16;98010.19;;;14.11;100.00
9740;BME280;4909;42.680;26.324;2023-01-19T02:45:45;98026.41;;;14.08;100.00
9740;BME280;4909;42.680;26.324;2023-01-19T02:48:31;98016.97;;;13.89;100.00
9740;BME280;4909;42.680;26.324;2023-01-19T02:50:58;98018.34;;;13.82;100.00
9740;BME280;4909;42.680;26.324;2023-01-19T02:53:55;98024.00;;;13.90;100.00
9740;BME280;4909;42.680;26.324;2023-01-19T02:56:38;98020.63;;;14.14;100.00
9740;BME280;4909;42.680;26.324;2023-01-19T02:59:16;98020.56;;;14.28;100.00
9740;BME280;4909;42.680;26.324;2023-01-19T03:01:59;98030.06;;;14.32;100.00
9740;BME280;4909;42.680;26.324;2023-01-19T03:04:41;98034.41;;;14.33;100.00
9740;BME280;4909;42.680;26.324;2023-01-19T03:07:20;98025.25;;;14.24;100.00
9740;BME280;4909;42.680;26.324;2023-01-19T03:09:57;98034.25;;;14.36;100.00
9740;BME280;4909;42.680;26.324;2023-01-19T03:12:31;98035.84;;;14.39;100.00
9740;BME280;4909;42.680;26.324;2023-01-19T03:15:02;98026.00;;;14.26;100.00
9740;BME280;4909;42.680;26.324;2023-01-19T03:17:34;98038.31;;;14.42;100.00
9740;BME280;4909;42.680;26.324;2023-01-19T03:20:04;98037.09;;;14.33;100.00
9740;BME280;4909;42.680;26.324;2023-01-19T03:22:33;98039.72;;;14.47;100.00
9740;BME280;4909;42.680;26.324;2023-01-19T03:25:00;98042.16;;;14.38;100.00
9740;BME280;4909;42.680;26.324;2023-01-19T03:27:31;98040.88;;;14.43;100.00
9740;BME280;4909;42.680;26.324;2023-01-19T03:30:03;98038.50;;;14.39;100.00
9740;BME280;4909;42.680;26.324;2023-01-19T03:32:37;98028.34;;;14.31;100.00
9740;BME280;4909;42.680;26.324;2023-01-19T03:35:09;98039.88;;;14.31;100.00
9740;BME280;4909;42.680;26.324;2023-01-19T03:37:39;98049.31;;;14.37;100.00
9740;BME280;4909;42.680;26.324;2023-01-19T03:40:10;98042.38;;;14.47;100.00
9740;BME280;4909;42.680;26.324;2023-01-19T03:42:39;97932.69;;;13.87;100.00
9740;BME280;4909;42.680;26.324;2023-01-19T03:45:07;98038.91;;;14.20;100.00
9740;BME280;4909;42.680;26.324;2023-01-19T03:47:35;98037.50;;;14.14;100.00
9740;BME280;4909;42.680;26.324;2023-01-19T03:50:05;98053.72;;;14.11;100.00
9740;BME280;4909;42.680;26.324;2023-01-19T03:52:33;98060.66;;;14.14;100.00
9740;BME280;4909;42.680;26.324;2023-01-19T03:55:00;98060.25;;;14.07;100.00
9740;BME280;4909;42.680;26.324;2023-01-19T03:57:28;98057.72;;;14.18;100.00
9740;BME280;4909;42.680;26.324;2023-01-19T03:59:56;98049.38;;;14.23;100.00
9740;BME280;4909;42.680;26.324;2023-01-19T04:02:23;98050.88;;;14.27;100.00
9740;BME280;4909;42.680;26.324;2023-01-19T04:04:50;98056.41;;;14.24;100.00
9740;BME280;4909;42.680;26.324;2023-01-19T04:07:17;98059.75;;;14.27;100.00
9740;BME280;4909;42.680;26.324;2023-01-19T04:09:43;98064.25;;;14.40;100.00
9740;BME280;4909;42.680;26.324;2023-01-19T04:12:10;98060.41;;;14.44;100.00
9740;BME280;4909;42.680;26.324;2023-01-19T04:14:37;98063.31;;;14.41;100.00
9740;BME280;4909;42.680;26.324;2023-01-19T04:17:05;98054.34;;;14.42;100.00
9740;BME280;4909;42.680;26.324;2023-01-19T04:19:32;98033.97;;;14.01;100.00
9740;BME280;4909;42.680;26.324;2023-01-19T04:21:59;98064.50;;;14.10;100.00
9740;BME280;4909;42.680;26.324;2023-01-19T04:24:26;98069.13;;;14.20;100.00
9740;BME280;4909;42.680;26.324;2023-01-19T04:26:53;98075.00;;;14.25;100.00
9740;BME280;4909;42.680;26.324;2023-01-19T04:29:19;98063.28;;;14.28;100.00
9740;BME280;4909;42.680;26.324;2023-01-19T04:31:46;98054.59;;;14.12;100.00
9740;BME280;4909;42.680;26.324;2023-01-19T04:34:14;98054.50;;;14.13;100.00
9740;BME280;4909;42.680;26.324;2023-01-19T04:36:41;98072.41;;;14.24;100.00
9740;BME280;4909;42.680;26.324;2023-01-19T04:39:09;98066.28;;;13.97;100.00
9740;BME280;4909;42.680;26.324;2023-01-19T04:41:37;98077.09;;;14.08;100.00
9740;BME280;4909;42.680;26.324;2023-01-19T04:44:03;98071.53;;;13.98;100.00
9740;BME280;4909;42.680;26.324;2023-01-19T04:46:30;98063.06;;;13.91;100.00
9740;BME280;4909;42.680;26.324;2023-01-19T04:48:57;98061.66;;;13.86;100.00
9740;BME280;4909;42.680;26.324;2023-01-19T04:51:26;98057.66;;;13.93;100.00
9740;BME280;4909;42.680;26.324;2023-01-19T04:53:53;98068.72;;;13.87;100.00
9740;BME280;4909;42.680;26.324;2023-01-19T04:56:19;98051.59;;;13.64;100.00
9740;BME280;4909;42.680;26.324;2023-01-19T04:58:46;98075.88;;;13.86;100.00
9740;BME280;4909;42.680;26.324;2023-01-19T05:01:13;98080.88;;;13.78;100.00
9740;BME280;4909;42.680;26.324;2023-01-19T05:03:40;98082.75;;;13.76;100.00
9740;BME280;4909;42.680;26.324;2023-01-19T05:06:06;98086.25;;;13.64;100.00
9740;BME280;4909;42.680;26.324;2023-01-19T05:08:35;98086.91;;;13.68;100.00
9740;BME280;4909;42.680;26.324;2023-01-19T05:11:01;98091.84;;;13.74;100.00
9740;BME280;4909;42.680;26.324;2023-01-19T05:13:28;98084.53;;;13.63;100.00
9740;BME280;4909;42.680;26.324;2023-01-19T05:15:55;98092.44;;;13.65;100.00
9740;BME280;4909;42.680;26.324;2023-01-19T05:18:22;98096.66;;;13.55;100.00
9740;BME280;4909;42.680;26.324;2023-01-19T05:20:49;98111.25;;;13.49;100.00
9740;BME280;4909;42.680;26.324;2023-01-19T05:23:15;98097.25;;;13.45;100.00
9740;BME280;4909;42.680;26.324;2023-01-19T05:25:44;98113.09;;;13.61;100.00
9740;BME280;4909;42.680;26.324;2023-01-19T05:28:11;98106.72;;;13.64;100.00
9740;BME280;4909;42.680;26.324;2023-01-19T05:30:37;98116.69;;;13.74;100.00
9740;BME280;4909;42.680;26.324;2023-01-19T05:33:04;98114.06;;;13.87;100.00
9740;BME280;4909;42.680;26.324;2023-01-19T05:35:31;98117.19;;;13.67;100.00
9740;BME280;4909;42.680;26.324;2023-01-19T05:37:58;98119.13;;;13.65;100.00
9740;BME280;4909;42.680;26.324;2023-01-19T05:40:25;98118.19;;;13.78;100.00
9740;BME280;4909;42.680;26.324;2023-01-19T05:42:54;98118.19;;;13.78;100.00
9740;BME280;4909;42.680;26.324;2023-01-19T05:45:24;98123.19;;;13.56;100.00
9740;BME280;4909;42.680;26.324;2023-01-19T05:47:52;98124.06;;;13.57;100.00
9740;BME280;4909;42.680;26.324;2023-01-19T05:50:19;98128.72;;;13.67;100.00
9740;BME280;4909;42.680;26.324;2023-01-19T05:52:46;98121.47;;;13.69;100.00
9740;BME280;4909;42.680;26.324;2023-01-19T05:55:13;98123.72;;;13.75;100.00
9740;BME280;4909;42.680;26.324;2023-01-19T05:57:40;98134.34;;;13.89;100.00
9740;BME280;4909;42.680;26.324;2023-01-19T06:00:10;98139.91;;;13.99;100.00
9740;BME280;4909;42.680;26.324;2023-01-19T06:02:38;98133.47;;;14.16;100.00
9740;BME280;4909;42.680;26.324;2023-01-19T06:05:05;98144.06;;;14.17;100.00
9740;BME280;4909;42.680;26.324;2023-01-19T06:07:32;98121.31;;;14.12;100.00
9740;BME280;4909;42.680;26.324;2023-01-19T06:09:59;98137.47;;;14.23;100.00
9740;BME280;4909;42.680;26.324;2023-01-19T06:12:25;98133.66;;;14.40;100.00
9740;BME280;4909;42.680;26.324;2023-01-19T06:14:52;98140.41;;;14.45;100.00
9740;BME280;4909;42.680;26.324;2023-01-19T06:17:20;98139.91;;;14.26;100.00
9740;BME280;4909;42.680;26.324;2023-01-19T06:19:47;98117.38;;;14.17;100.00
9740;BME280;4909;42.680;26.324;2023-01-19T06:22:14;98130.28;;;14.38;100.00
9740;BME280;4909;42.680;26.324;2023-01-19T06:24:40;98133.72;;;14.52;100.00
9740;BME280;4909;42.680;26.324;2023-01-19T06:27:07;98136.38;;;14.65;100.00
9740;BME280;4909;42.680;26.324;2023-01-19T06:29:35;98133.72;;;14.90;99.20
9740;BME280;4909;42.680;26.324;2023-01-19T06:32:02;98149.09;;;14.87;97.74
9740;BME280;4909;42.680;26.324;2023-01-19T06:34:30;98152.31;;;15.04;97.13
9740;BME280;4909;42.680;26.324;2023-01-19T06:36:57;98153.16;;;15.17;96.71
9740;BME280;4909;42.680;26.324;2023-01-19T06:39:24;98144.69;;;15.36;93.61
9740;BME280;4909;42.680;26.324;2023-01-19T06:41:51;98134.41;;;15.30;91.75
9740;BME280;4909;42.680;26.324;2023-01-19T06:44:18;98156.94;;;15.64;90.90
9740;BME280;4909;42.680;26.324;2023-01-19T06:46:45;98156.88;;;15.89;88.56
9740;BME280;4909;42.680;26.324;2023-01-19T06:49:13;98177.31;;;15.90;87.96
9740;BME280;4909;42.680;26.324;2023-01-19T06:51:42;98154.03;;;16.03;87.95
9740;BME280;4909;42.680;26.324;2023-01-19T06:54:09;98177.13;;;16.52;85.28
9740;BME280;4909;42.680;26.324;2023-01-19T06:56:36;98180.28;;;16.70;83.74
9740;BME280;4909;42.680;26.324;2023-01-19T06:59:03;98190.22;;;17.03;82.53
9740;BME280;4909;42.680;26.324;2023-01-19T07:01:29;98181.72;;;17.20;82.50
9740;BME280;4909;42.680;26.324;2023-01-19T07:03:57;98188.72;;;17.67;79.85
9740;BME280;4909;42.680;26.324;2023-01-19T07:06:23;98185.63;;;18.05;78.18
9740;BME280;4909;42.680;26.324;2023-01-19T07:08:53;98191.47;;;18.74;75.22
9740;BME280;4909;42.680;26.324;2023-01-19T07:11:19;98196.16;;;19.55;72.74
9740;BME280;4909;42.680;26.324;2023-01-19T07:13:46;98191.03;;;20.51;69.69
9740;BME280;4909;42.680;26.324;2023-01-19T07:16:34;98191.00;;;21.28;65.85
9740;BME280;4909;42.680;26.324;2023-01-19T07:19:01;98176.28;;;20.74;66.82
9740;BME280;4909;42.680;26.324;2023-01-19T07:21:28;98188.75;;;21.13;65.53
9740;BME280;4909;42.680;26.324;2023-01-19T07:23:56;98197.16;;;21.94;62.86
9740;BME280;4909;42.680;26.324;2023-01-19T07:26:23;98192.09;;;22.08;62.44
9740;BME280;4909;42.680;26.324;2023-01-19T07:28:52;98195.66;;;22.09;61.71
9740;BME280;4909;42.680;26.324;2023-01-19T07:31:19;98193.75;;;21.92;62.05
9740;BME280;4909;42.680;26.324;2023-01-19T07:33:46;98200.13;;;21.63;63.52
9740;BME280;4909;42.680;26.324;2023-01-19T07:36:13;98182.28;;;22.07;61.78
9740;BME280;4909;42.680;26.324;2023-01-19T07:38:40;98203.81;;;22.89;59.52
9740;BME280;4909;42.680;26.324;2023-01-19T07:41:09;98200.66;;;22.94;59.50
9740;BME280;4909;42.680;26.324;2023-01-19T07:43:36;98166.94;;;23.40;57.26
9740;BME280;4909;42.680;26.324;2023-01-19T07:46:04;98192.44;;;23.29;57.75
9740;BME280;4909;42.680;26.324;2023-01-19T07:48:31;98205.88;;;23.39;57.42
9740;BME280;4909;42.680;26.324;2023-01-19T07:50:58;98203.25;;;23.04;57.39
9740;BME280;4909;42.680;26.324;2023-01-19T07:53:26;98203.34;;;22.94;58.56
9740;BME280;4909;42.680;26.324;2023-01-19T07:55:53;98212.78;;;21.63;61.85
9740;BME280;4909;42.680;26.324;2023-01-19T07:58:22;98194.84;;;20.48;66.64
9740;BME280;4909;42.680;26.324;2023-01-19T08:00:49;98195.88;;;20.76;66.25
9740;BME280;4909;42.680;26.324;2023-01-19T08:03:16;98186.41;;;20.03;68.25
9740;BME280;4909;42.680;26.324;2023-01-19T08:05:43;98203.00;;;20.08;69.00
9740;BME280;4909;42.680;26.324;2023-01-19T08:08:10;98206.38;;;20.60;67.19
9740;BME280;4909;42.680;26.324;2023-01-19T08:10:37;98205.22;;;21.01;66.28
9740;BME280;4909;42.680;26.324;2023-01-19T08:13:03;98209.97;;;21.45;64.54
9740;BME280;4909;42.680;26.324;2023-01-19T08:15:32;98210.69;;;21.84;63.72
9740;BME280;4909;42.680;26.324;2023-01-19T08:18:00;98205.69;;;22.26;62.31
9740;BME280;4909;42.680;26.324;2023-01-19T08:20:28;98215.31;;;23.35;59.29
9740;BME280;4909;42.680;26.324;2023-01-19T08:22:55;98214.66;;;23.85;56.75
9740;BME280;4909;42.680;26.324;2023-01-19T08:25:25;98199.38;;;23.75;56.71
9740;BME280;4909;42.680;26.324;2023-01-19T08:27:53;98198.94;;;24.88;53.09
9740;BME280;4909;42.680;26.324;2023-01-19T08:30:20;98226.31;;;25.90;50.65
9740;BME280;4909;42.680;26.324;2023-01-19T08:32:53;98224.19;;;26.17;49.67
9740;BME280;4909;42.680;26.324;2023-01-19T08:35:22;98217.41;;;25.25;51.14
9740;BME280;4909;42.680;26.324;2023-01-19T08:37:49;98219.94;;;25.51;50.30
9740;BME280;4909;42.680;26.324;2023-01-19T08:40:16;98232.81;;;25.89;49.95
9740;BME280;4909;42.680;26.324;2023-01-19T08:42:44;98221.00;;;25.26;50.70
9740;BME280;4909;42.680;26.324;2023-01-19T08:45:11;98205.31;;;23.79;55.25
9740;BME280;4909;42.680;26.324;2023-01-19T08:47:37;98204.41;;;23.96;54.94
9740;BME280;4909;42.680;26.324;2023-01-19T08:50:06;98191.63;;;23.11;56.99
9740;BME280;4909;42.680;26.324;2023-01-19T08:52:35;98201.88;;;22.82;57.89
9740;BME280;4909;42.680;26.324;2023-01-19T08:55:01;98193.38;;;22.32;59.81
9740;BME280;4909;42.680;26.324;2023-01-19T08:57:28;98208.72;;;21.49;62.14
9740;BME280;4909;42.680;26.324;2023-01-19T08:59:55;98194.16;;;20.94;64.24
9740;BME280;4909;42.680;26.324;2023-01-19T09:02:22;98188.63;;;20.57;65.17
9740;BME280;4909;42.680;26.324;2023-01-19T09:04:48;98183.38;;;19.87;67.51
9740;BME280;4909;42.680;26.324;2023-01-19T09:07:17;98187.63;;;19.89;68.44
9740;BME280;4909;42.680;26.324;2023-01-19T09:09:44;98185.13;;;19.67;68.47
9740;BME280;4909;42.680;26.324;2023-01-19T09:12:11;98188.41;;;19.20;70.01
9740;BME280;4909;42.680;26.324;2023-01-19T09:14:37;98193.41;;;19.03;70.27
9740;BME280;4909;42.680;26.324;2023-01-19T09:17:05;98186.19;;;18.62;71.95
9740;BME280;4909;42.680;26.324;2023-01-19T09:19:31;98188.28;;;18.48;72.41
9740;BME280;4909;42.680;26.324;2023-01-19T09:21:58;98179.88;;;18.41;73.29
9740;BME280;4909;42.680;26.324;2023-01-19T09:24:26;98179.09;;;18.30;73.60
9740;BME280;4909;42.680;26.324;2023-01-19T09:26:53;98170.06;;;18.19;73.81
9740;BME280;4909;42.680;26.324;2023-01-19T09:29:20;98122.16;;;17.93;73.62
9740;BME280;4909;42.680;26.324;2023-01-19T09:31:47;98171.72;;;18.32;73.13
9740;BME280;4909;42.680;26.324;2023-01-19T09:34:14;98180.16;;;18.27;73.05
9740;BME280;4909;42.680;26.324;2023-01-19T09:36:41;98172.19;;;18.05;73.81
9740;BME280;4909;42.680;26.324;2023-01-19T09:39:08;98170.09;;;18.08;74.03
9740;BME280;4909;42.680;26.324;2023-01-19T09:41:37;98172.91;;;18.07;73.74
9740;BME280;4909;42.680;26.324;2023-01-19T09:44:15;98169.91;;;17.78;74.43
9740;BME280;4909;42.680;26.324;2023-01-19T09:46:43;98171.84;;;17.54;75.67
9740;BME280;4909;42.680;26.324;2023-01-19T09:49:12;98155.03;;;17.52;74.89
9740;BME280;4909;42.680;26.324;2023-01-19T09:51:42;98173.19;;;17.81;74.56
9740;BME280;4909;42.680;26.324;2023-01-19T09:54:12;98165.03;;;17.72;75.16
9740;BME280;4909;42.680;26.324;2023-01-19T09:56:42;98166.41;;;17.66;75.26
9740;BME280;4909;42.680;26.324;2023-01-19T09:59:17;98168.06;;;17.90;73.76
9740;BME280;4909;42.680;26.324;2023-01-19T10:01:58;98152.56;;;17.93;74.24
9740;BME280;4909;42.680;26.324;2023-01-19T10:04:30;98175.00;;;17.92;74.34
9740;BME280;4909;42.680;26.324;2023-01-19T10:07:05;98153.50;;;18.03;73.75
9740;BME280;4909;42.680;26.324;2023-01-19T10:09:39;98146.13;;;18.16;72.27
9740;BME280;4909;42.680;26.324;2023-01-19T10:12:16;98150.91;;;18.56;70.28
9740;BME280;4909;42.680;26.324;2023-01-19T10:14:52;98162.31;;;18.90;68.42
9740;BME280;4909;42.680;26.324;2023-01-19T10:17:36;98157.00;;;18.99;66.80
9740;BME280;4909;42.680;26.324;2023-01-19T10:20:10;98111.63;;;18.85;66.07
9740;BME280;4909;42.680;26.324;2023-01-19T10:22:41;98154.28;;;19.20;65.60
9740;BME280;4909;42.680;26.324;2023-01-19T10:25:14;98146.00;;;19.33;64.68
9740;BME280;4909;42.680;26.324;2023-01-19T10:27:44;98129.41;;;19.28;64.46
9740;BME280;4909;42.680;26.324;2023-01-19T10:30:16;98123.41;;;19.15;65.15
9740;BME280;4909;42.680;26.324;2023-01-19T10:32:45;98124.88;;;19.28;64.55
9740;BME280;4909;42.680;26.324;2023-01-19T10:35:14;98142.41;;;19.23;64.19
9740;BME280;4909;42.680;26.324;2023-01-19T10:37:47;98128.38;;;19.19;64.57
9740;BME280;4909;42.680;26.324;2023-01-19T10:40:21;98117.53;;;19.30;64.21
9740;BME280;4909;42.680;26.324;2023-01-19T10:42:52;98126.50;;;19.40;64.41
9740;BME280;4909;42.680;26.324;2023-01-19T10:45:20;98132.25;;;19.57;64.48
9740;BME280;4909;42.680;26.324;2023-01-19T10:47:49;98061.47;;;19.35;63.92
9740;BME280;4909;42.680;26.324;2023-01-19T10:50:25;98100.06;;;19.45;63.37
9740;BME280;4909;42.680;26.324;2023-01-19T10:52:54;98077.63;;;19.35;62.93
9740;BME280;4909;42.680;26.324;2023-01-19T10:55:27;98108.13;;;19.45;62.94
9740;BME280;4909;42.680;26.324;2023-01-19T10:57:56;98100.38;;;19.22;63.28
9740;BME280;4909;42.680;26.324;2023-01-19T11:00:34;98109.00;;;19.25;63.91
9740;BME280;4909;42.680;26.324;2023-01-19T11:03:03;98109.38;;;19.11;62.98
9740;BME280;4909;42.680;26.324;2023-01-19T11:05:31;98104.13;;;19.09;63.66
9740;BME280;4909;42.680;26.324;2023-01-19T11:07:58;98096.00;;;19.00;63.22
9740;BME280;4909;42.680;26.324;2023-01-19T11:10:26;98083.72;;;19.07;63.05
9740;BME280;4909;42.680;26.324;2023-01-19T11:12:58;98069.56;;;19.05;63.72
9740;BME280;4909;42.680;26.324;2023-01-19T11:15:30;98066.38;;;19.21;64.37
9740;BME280;4909;42.680;26.324;2023-01-19T11:17:58;98054.03;;;19.18;63.51
9740;BME280;4909;42.680;26.324;2023-01-19T11:20:28;98064.69;;;19.29;64.58
9740;BME280;4909;42.680;26.324;2023-01-19T11:23:07;98067.09;;;19.32;63.44
9740;BME280;4909;42.680;26.324;2023-01-19T11:25:45;98069.31;;;19.18;62.51
9740;BME280;4909;42.680;26.324;2023-01-19T11:28:17;98055.94;;;18.97;62.65
9740;BME280;4909;42.680;26.324;2023-01-19T11:30:53;98065.09;;;18.94;62.75
9740;BME280;4909;42.680;26.324;2023-01-19T11:33:25;98066.13;;;19.03;63.10
9740;BME280;4909;42.680;26.324;2023-01-19T11:36:03;98076.22;;;19.10;63.51
9740;BME280;4909;42.680;26.324;2023-01-19T11:38:34;98065.69;;;18.98;63.59
9740;BME280;4909;42.680;26.324;2023-01-19T11:41:16;98063.19;;;19.06;63.75
9740;BME280;4909;42.680;26.324;2023-01-19T11:43:46;98067.34;;;18.89;64.58
9740;BME280;4909;42.680;26.324;2023-01-19T11:46:14;98060.53;;;18.85;65.24
9740;BME280;4909;42.680;26.324;2023-01-19T11:48:45;98026.97;;;18.80;64.97
9740;BME280;4909;42.680;26.324;2023-01-19T11:51:15;98044.53;;;18.84;64.99
9740;BME280;4909;42.680;26.324;2023-01-19T11:53:47;98039.66;;;18.98;64.44
9740;BME280;4909;42.680;26.324;2023-01-19T11:56:14;98036.63;;;19.22;64.06
9740;BME280;4909;42.680;26.324;2023-01-19T11:58:46;98046.88;;;19.38;63.41
9740;BME280;4909;42.680;26.324;2023-01-19T12:01:17;98038.06;;;19.26;63.20
9740;BME280;4909;42.680;26.324;2023-01-19T12:03:51;98033.97;;;19.32;62.67
9740;BME280;4909;42.680;26.324;2023-01-19T12:06:24;98034.19;;;19.49;62.00
9740;BME280;4909;42.680;26.324;2023-01-19T12:08:53;98054.53;;;19.42;62.28
9740;BME280;4909;42.680;26.324;2023-01-19T12:11:24;98053.38;;;19.26;61.16
9740;BME280;4909;42.680;26.324;2023-01-19T12:13:53;98013.16;;;18.94;62.30
9740;BME280;4909;42.680;26.324;2023-01-19T12:16:21;98046.16;;;18.96;62.28
9740;BME280;4909;42.680;26.324;2023-01-19T12:18:53;98046.13;;;18.86;62.83
9740;BME280;4909;42.680;26.324;2023-01-19T12:21:21;98081.03;;;19.07;62.01
9740;BME280;4909;42.680;26.324;2023-01-19T12:23:55;98081.78;;;19.19;62.66
9740;BME280;4909;42.680;26.324;2023-01-19T12:26:28;98064.47;;;19.02;63.34
9740;BME280;4909;42.680;26.324;2023-01-19T12:29:02;98085.56;;;19.06;62.10
9740;BME280;4909;42.680;26.324;2023-01-19T12:31:29;98087.66;;;19.03;62.71
9740;BME280;4909;42.680;26.324;2023-01-19T12:34:27;98080.94;;;18.88;63.23
9740;BME280;4909;42.680;26.324;2023-01-19T12:36:59;98085.25;;;19.00;63.21
9740;BME280;4909;42.680;26.324;2023-01-19T12:39:27;98087.59;;;18.93;63.30
9740;BME280;4909;42.680;26.324;2023-01-19T12:42:04;98094.34;;;19.08;62.00
9740;BME280;4909;42.680;26.324;2023-01-19T12:44:33;98094.03;;;19.02;60.95
9740;BME280;4909;42.680;26.324;2023-01-19T12:47:17;98084.56;;;19.07;61.60
9740;BME280;4909;42.680;26.324;2023-01-19T12:49:46;98076.66;;;19.06;60.71
9740;BME280;4909;42.680;26.324;2023-01-19T12:52:27;98095.19;;;19.09;61.33
9740;BME280;4909;42.680;26.324;2023-01-19T12:55:01;98069.09;;;19.00;61.59
9740;BME280;4909;42.680;26.324;2023-01-19T12:57:31;98062.75;;;19.01;61.68
9740;BME280;4909;42.680;26.324;2023-01-19T13:00:03;98079.19;;;19.07;61.98
9740;BME280;4909;42.680;26.324;2023-01-19T13:02:50;98068.59;;;18.85;62.42
9740;BME280;4909;42.680;26.324;2023-01-19T13:05:22;98083.81;;;18.96;62.71
9740;BME280;4909;42.680;26.324;2023-01-19T13:08:14;98080.66;;;18.91;62.72
9740;BME280;4909;42.680;26.324;2023-01-19T13:17:22;98077.28;;;18.68;61.46
9740;BME280;4909;42.680;26.324;2023-01-19T13:20:20;98094.63;;;18.64;60.54
9740;BME280;4909;42.680;26.324;2023-01-19T13:23:21;98090.22;;;18.53;60.85
9740;BME280;4909;42.680;26.324;2023-01-19T13:26:01;98084.13;;;18.40;61.51
9740;BME280;4909;42.680;26.324;2023-01-19T13:28:37;98076.59;;;18.34;61.70